Airfield :







YOU CAN JOIN US ON...

 
LOGIN :

Register | Disclaimer

   EN    FR    IT 

 









Legend :    VFR   Marginal VFR   IFR   Intensive IFR   Very Intensive IFR
Visi :
Ceiling :
>= 8 km
>= 3000ft
5 to 8 km
1000 to 3000 ft
1500m to 5 km
500 to 1000 ft
800 to 1500m
200 to 500 ft
< 800m
< 200 ft
Symbols :   Thunderstorms  Fog  Heavy snow  Heavy precipitations  Wind > 20 kt






- Airport Elevation : 11 ft


KGHG - Marshfield Municipal George Harlow Field

CURRENT METAR :
  • 272115Z AUTO VRB06G12KT 10SM OVC055 07/M03 A2956 RMK AO2

EXPIRED METARs :
  • 272055Z AUTO 29008G13KT 240V310 10SM BKN050 OVC055 07/M03 A2955 RMK AO2
  • 272035Z AUTO 26007G14KT 210V300 10SM FEW044 BKN050 BKN055 07/M03 A2955 RMK AO2
  • 272015Z AUTO 26009G16KT 230V290 10SM BKN043 BKN050 08/M03 A2954 RMK AO2
  • 271955Z AUTO 26009KT 10SM CLR 08/M02 A2954 RMK AO2
  • 271935Z AUTO 27008G15KT 230V320 10SM FEW041 SCT049 SCT060 07/M02 A2954 RMK AO2
  • 271915Z AUTO VRB05G13KT 10SM SCT042 BKN050 07/M02 A2954 RMK AO2
  • 271855Z AUTO 27008G16KT 240V310 10SM SCT041 SCT048 SCT055 08/M02 A2954 RMK AO2
  • 271835Z AUTO 27012G18KT 250V310 10SM BKN040 BKN050 BKN110 08/M02 A2954 RMK AO2

TAF N/A



MET'MAP, your aeronautical weather chart ! - Copyright ORBIFLY December 2007 - Disclaimer

ORBIFLY MET'MAP TEAM :

Programming & Development : Alexandra Zaïnal
Concept & original design : Baudouin d'Aumeries
Assistance for programming : Marc-Olivier Méhu
Technical & hardware support : Manuel Goepfert

Contact : metmap@orbifly.com




SOURCES & CREDITS :

   NOAA